Huvudsida
METAR-TAF:

METAR-TAF

Flygplatser :

Bastia, Frankrike

latitud: 42-33N, longitud: 009-29E, höjd: 8 m

Aktuellt väderrapport

Denna rapport gjordes för 18 minuter sedan, klockan 08:30 UTC
Vind 4 kt från sydost, varierande mellan ost/nordost och syd/sydväst
Temperatur 33°C
Fuktighet 36%
Tryck 1021 hPa
Sikt 10 km eller mer
Inga moln under 1 500 m eller inga cumulonimbus

METAR: LFKB 260830Z AUTO 13004KT 070V200 CAVOK 33/16 Q1021 NOSIG

Tid: 10:48 (08:48 UTC)

Väderprognos

Denna rapport gjordes för 48 minuter sedan, klockan 08:00 UTC
Prognos gäller från 26 kl. 09 UTC till 27 kl. 09 UTC
Vind 12 kt från sydost
Sikt 10 km eller mer
Inga moln under 1 500 m eller inga cumulonimbus
Blir
från 26 kl. 17 UTC till 26 kl. 20 UTC
Vind 4 kt från nord/nordväst

TAF: LFKB 260800Z 2609/2709 14012KT CAVOK TX35/2612Z TN23/2703Z BECMG 2617/2620 34004KT

Aktuella väderrapporter och prognoser från 4000 flygplatser (METAR- och TAF-rapporter).

De tillgängliga stationerna syns som gula och röda prickar på kartan.

För musen över prickarna för att se namnen på stationerna.

Klicka sedan för att få väderrapporter och prognoser.

För att ändra kartan: Klicka på de gröna knapparna med ett svart kors på för att zooma in; den gröna knappen med ett streck på för att zooma ut; eller på de gröna pilarna för angränsande kartor.


METAR-TAF: